Put In Bay, OH

11:24 AM EDT on July 07, 2015 (GMT -0400)
ANCHORS AWAY MARINA | | Change Station
CLOSE
Current Station
Personal Weather Station
Location: Marblehead, OH
Elevation: 577 ft
Nearby Weather Stations

Elev 577 ft 41.56 °N, 82.82 °W | Updated 2 minutes ago

Mostly Cloudy
Mostly Cloudy
79.8 °F
Feels Like 84 °F
N
20.0
Wind Variable Wind from SSW
Gusts 22.0 mph

Today
High -- | Low -- °F
--% Chance of Precip.
Yesterday
High -- | Low -- °F
Precip. -- in
6:04 AM 9:08 PM
Waning Gibbous, 64% visible
Pressure 29.87 in
Visibility 10.0 miles
Clouds Mostly Cloudy 2200 ft
Overcast 2600 ft
Heat Index 84 °F
Dew Point 74 °F
Humidity 81%
Rainfall 0.00 in
Snow Depth Not available.
UV 2 out of 12
Pollen .60 out of 12
Air Quality Not available.
Flu Activity Not available.
METAR KTDZ 071453Z AUTO 22010G19KT 10SM BKN022 OVC026 27/22 A2988 RMK AO2 SLP115 T02670217 58004

More Conditions Fewer Conditions

Pressure 29.87 in
Visibility 10.0 miles
Clouds Mostly Cloudy 2200 ft
Overcast 2600 ft
Heat Index 84 °F
Dew Point 74 °F
Humidity 81%
Rainfall 0.00 in
Snow Depth Not available.
UV 2 out of 12
Pollen .60 out of 12
Air Quality Not available.
Flu Activity Not available.
METAR KTDZ 071453Z AUTO 22010G19KT 10SM BKN022 OVC026 27/22 A2988 RMK AO2 SLP115 T02670217 58004

More Conditions Fewer Conditions

Nowcast | as of 10:03 am EDT on July 7, 2015

Showers and thumderstorms over western Ohio were moving east northeast at 25 miles an hour. These showers and thunderstorms will reach the Toledo area between 11 am and noon. Strong gusty winds can be expected with the thunderstorms.

×

10-Day Weather Forecast

×

Almanac

Astronomy

Jul. 07, 2015 Rise Set
Actual Time
Civil Twilight
Nautical Twilight
Astronomical Twilight
Moon
Length of Visible Light
Length of Day
Tomorrow will be .
, % of the Moon is Illuminated

Today's Extremes

State Highs State Lows

Community

WunderPhotos

Upload Photos

1,835,816 photos uploaded!

WunderBlogs® & News

Nearby

Air Quality

  Air Quality AQ Index Pollutant
Not available.

Snow Depth

Station Depth Elevation

Earthquake Activity

City Distance Mag. Time & Date
Minimum magnitude displayed is 2.5.

Coastal Water Temperatures

Place Temperature

Stations

Nearby Weather Stations

Station Location Temp. Windchill Dew Point Humidity Wind Precip. Elev Updated Type